sensor_id;sensor_type;location;lat;lon;timestamp;pressure;altitude;pressure_sealevel;temperature;humidity
60970;BME280;46841;48.938;9.502;2024-02-16T00:02:01;98379.78;;;6.61;90.62
60970;BME280;46841;48.938;9.502;2024-02-16T00:04:27;98384.13;;;6.59;91.27
60970;BME280;46841;48.938;9.502;2024-02-16T00:06:53;98377.97;;;6.60;91.08
60970;BME280;46841;48.938;9.502;2024-02-16T00:09:18;98376.50;;;6.66;89.12
60970;BME280;46841;48.938;9.502;2024-02-16T00:11:44;98379.91;;;6.64;88.08
60970;BME280;46841;48.938;9.502;2024-02-16T00:14:10;98389.47;;;6.60;88.70
60970;BME280;46841;48.938;9.502;2024-02-16T00:16:36;98378.28;;;6.67;88.57
60970;BME280;46841;48.938;9.502;2024-02-16T00:19:05;98384.50;;;6.68;88.52
60970;BME280;46841;48.938;9.502;2024-02-16T00:21:30;98385.94;;;6.60;88.51
60970;BME280;46841;48.938;9.502;2024-02-16T00:23:57;98379.00;;;6.63;89.18
60970;BME280;46841;48.938;9.502;2024-02-16T00:26:25;98380.13;;;6.70;89.21
60970;BME280;46841;48.938;9.502;2024-02-16T00:28:51;98372.19;;;6.70;89.00
60970;BME280;46841;48.938;9.502;2024-02-16T00:31:16;98377.66;;;6.75;88.74
60970;BME280;46841;48.938;9.502;2024-02-16T00:33:42;98377.34;;;6.89;88.50
60970;BME280;46841;48.938;9.502;2024-02-16T00:36:08;98371.94;;;6.86;88.36
60970;BME280;46841;48.938;9.502;2024-02-16T00:38:35;98363.44;;;6.95;87.82
60970;BME280;46841;48.938;9.502;2024-02-16T00:41:01;98373.91;;;6.92;87.69
60970;BME280;46841;48.938;9.502;2024-02-16T00:43:28;98366.72;;;6.89;87.63
60970;BME280;46841;48.938;9.502;2024-02-16T00:45:53;98369.91;;;7.03;88.57
60970;BME280;46841;48.938;9.502;2024-02-16T00:48:19;98358.59;;;7.09;88.70
60970;BME280;46841;48.938;9.502;2024-02-16T00:50:44;98362.84;;;7.04;88.94
60970;BME280;46841;48.938;9.502;2024-02-16T00:53:10;98359.28;;;7.03;89.08
60970;BME280;46841;48.938;9.502;2024-02-16T00:55:35;98363.53;;;6.98;88.96
60970;BME280;46841;48.938;9.502;2024-02-16T00:58:02;98366.34;;;7.03;89.06
60970;BME280;46841;48.938;9.502;2024-02-16T01:00:27;98359.97;;;6.98;89.68
60970;BME280;46841;48.938;9.502;2024-02-16T01:02:53;98366.00;;;6.93;89.77
60970;BME280;46841;48.938;9.502;2024-02-16T01:05:18;98367.34;;;7.05;89.42
60970;BME280;46841;48.938;9.502;2024-02-16T01:07:45;98369.81;;;7.00;89.29
60970;BME280;46841;48.938;9.502;2024-02-16T01:10:12;98375.84;;;6.96;89.65
60970;BME280;46841;48.938;9.502;2024-02-16T01:12:37;98370.19;;;6.87;89.90
60970;BME280;46841;48.938;9.502;2024-02-16T01:15:05;98368.25;;;6.83;90.34
60970;BME280;46841;48.938;9.502;2024-02-16T01:17:30;98363.00;;;6.84;90.05
60970;BME280;46841;48.938;9.502;2024-02-16T01:19:58;98376.75;;;6.97;89.79
60970;BME280;46841;48.938;9.502;2024-02-16T01:22:24;98370.53;;;6.96;89.48
60970;BME280;46841;48.938;9.502;2024-02-16T01:24:49;98372.38;;;6.99;89.34
60970;BME280;46841;48.938;9.502;2024-02-16T01:27:15;98366.84;;;6.92;89.28
60970;BME280;46841;48.938;9.502;2024-02-16T01:29:41;98365.91;;;6.90;89.14
60970;BME280;46841;48.938;9.502;2024-02-16T01:32:07;98350.34;;;7.00;88.30
60970;BME280;46841;48.938;9.502;2024-02-16T01:34:32;98345.78;;;6.96;88.26
60970;BME280;46841;48.938;9.502;2024-02-16T01:36:58;98359.63;;;6.88;88.58
60970;BME280;46841;48.938;9.502;2024-02-16T01:39:24;98360.09;;;7.01;88.82
60970;BME280;46841;48.938;9.502;2024-02-16T01:41:50;98359.25;;;7.02;88.58
60970;BME280;46841;48.938;9.502;2024-02-16T01:44:16;98357.38;;;6.99;88.54
60970;BME280;46841;48.938;9.502;2024-02-16T01:46:42;98364.38;;;6.97;88.70
60970;BME280;46841;48.938;9.502;2024-02-16T01:49:10;98368.28;;;7.07;88.93
60970;BME280;46841;48.938;9.502;2024-02-16T01:51:36;98366.25;;;7.24;88.46
60970;BME280;46841;48.938;9.502;2024-02-16T01:54:02;98366.19;;;7.22;88.53
60970;BME280;46841;48.938;9.502;2024-02-16T01:56:28;98377.69;;;7.23;88.81
60970;BME280;46841;48.938;9.502;2024-02-16T01:58:55;98376.91;;;7.25;88.31
60970;BME280;46841;48.938;9.502;2024-02-16T02:01:22;98380.84;;;7.12;89.12
60970;BME280;46841;48.938;9.502;2024-02-16T02:03:48;98375.22;;;7.03;89.02
60970;BME280;46841;48.938;9.502;2024-02-16T02:06:16;98364.34;;;6.96;89.38
60970;BME280;46841;48.938;9.502;2024-02-16T02:08:41;98366.00;;;6.93;89.46
60970;BME280;46841;48.938;9.502;2024-02-16T02:11:06;98370.16;;;6.85;89.47
60970;BME280;46841;48.938;9.502;2024-02-16T02:13:32;98368.25;;;6.83;89.84
60970;BME280;46841;48.938;9.502;2024-02-16T02:15:58;98364.66;;;6.81;89.93
60970;BME280;46841;48.938;9.502;2024-02-16T02:18:26;98362.06;;;6.82;89.97
60970;BME280;46841;48.938;9.502;2024-02-16T02:20:53;98362.38;;;6.90;89.85
60970;BME280;46841;48.938;9.502;2024-02-16T02:23:19;98360.69;;;6.93;89.70
60970;BME280;46841;48.938;9.502;2024-02-16T02:25:47;98346.50;;;6.91;89.51
60970;BME280;46841;48.938;9.502;2024-02-16T02:28:14;98345.66;;;6.92;89.63
60970;BME280;46841;48.938;9.502;2024-02-16T02:30:41;98349.50;;;7.01;89.00
60970;BME280;46841;48.938;9.502;2024-02-16T02:33:06;98342.94;;;7.15;89.40
60970;BME280;46841;48.938;9.502;2024-02-16T02:35:33;98338.41;;;7.12;89.16
60970;BME280;46841;48.938;9.502;2024-02-16T02:37:58;98343.16;;;7.21;89.40
60970;BME280;46841;48.938;9.502;2024-02-16T02:40:24;98329.94;;;7.23;89.12
60970;BME280;46841;48.938;9.502;2024-02-16T02:42:51;98338.41;;;7.12;89.45
60970;BME280;46841;48.938;9.502;2024-02-16T02:45:17;98324.53;;;7.19;89.37
60970;BME280;46841;48.938;9.502;2024-02-16T02:47:42;98322.72;;;7.18;89.01
60970;BME280;46841;48.938;9.502;2024-02-16T02:50:09;98321.72;;;7.15;89.50
60970;BME280;46841;48.938;9.502;2024-02-16T02:52:37;98319.22;;;7.19;89.30
60970;BME280;46841;48.938;9.502;2024-02-16T02:55:04;98311.19;;;7.18;89.09
60970;BME280;46841;48.938;9.502;2024-02-16T02:57:34;98307.94;;;7.25;89.18
60970;BME280;46841;48.938;9.502;2024-02-16T03:00:08;98311.31;;;7.21;88.99
60970;BME280;46841;48.938;9.502;2024-02-16T03:02:38;98313.41;;;7.30;88.69
60970;BME280;46841;48.938;9.502;2024-02-16T03:05:07;98309.31;;;7.39;88.70
60970;BME280;46841;48.938;9.502;2024-02-16T03:07:33;98309.50;;;7.45;88.12
60970;BME280;46841;48.938;9.502;2024-02-16T03:09:59;98311.16;;;7.42;88.32
60970;BME280;46841;48.938;9.502;2024-02-16T03:12:24;98305.41;;;7.28;88.85
60970;BME280;46841;48.938;9.502;2024-02-16T03:14:50;98306.22;;;7.27;89.02
60970;BME280;46841;48.938;9.502;2024-02-16T03:17:18;98300.81;;;7.24;89.13
60970;BME280;46841;48.938;9.502;2024-02-16T03:19:45;98305.53;;;7.33;89.22
60970;BME280;46841;48.938;9.502;2024-02-16T03:22:13;98317.16;;;7.36;88.90
60970;BME280;46841;48.938;9.502;2024-02-16T03:24:38;98314.78;;;7.44;88.75
60970;BME280;46841;48.938;9.502;2024-02-16T03:27:04;98315.81;;;7.48;88.76
60970;BME280;46841;48.938;9.502;2024-02-16T03:29:30;98315.88;;;7.51;88.51
60970;BME280;46841;48.938;9.502;2024-02-16T03:31:56;98311.28;;;7.45;88.80
60970;BME280;46841;48.938;9.502;2024-02-16T03:34:22;98314.72;;;7.42;89.50
60970;BME280;46841;48.938;9.502;2024-02-16T03:36:49;98314.47;;;7.35;90.08
60970;BME280;46841;48.938;9.502;2024-02-16T03:39:15;98311.84;;;7.36;89.99
60970;BME280;46841;48.938;9.502;2024-02-16T03:41:46;98317.22;;;7.38;90.16
60970;BME280;46841;48.938;9.502;2024-02-16T03:44:15;98311.31;;;7.46;90.02
60970;BME280;46841;48.938;9.502;2024-02-16T03:46:43;98322.09;;;7.51;89.68
60970;BME280;46841;48.938;9.502;2024-02-16T03:49:10;98314.88;;;7.47;90.32
60970;BME280;46841;48.938;9.502;2024-02-16T03:51:35;98312.72;;;7.35;90.46
60970;BME280;46841;48.938;9.502;2024-02-16T03:54:02;98320.66;;;7.35;90.58
60970;BME280;46841;48.938;9.502;2024-02-16T03:56:29;98331.59;;;7.44;90.18
60970;BME280;46841;48.938;9.502;2024-02-16T03:58:55;98329.81;;;7.43;89.82
60970;BME280;46841;48.938;9.502;2024-02-16T04:01:22;98327.69;;;7.33;90.14
60970;BME280;46841;48.938;9.502;2024-02-16T04:03:49;98339.56;;;7.19;90.34
60970;BME280;46841;48.938;9.502;2024-02-16T04:06:17;98339.31;;;7.13;91.14
60970;BME280;46841;48.938;9.502;2024-02-16T04:08:42;98341.75;;;7.07;91.48
60970;BME280;46841;48.938;9.502;2024-02-16T04:11:11;98353.00;;;7.00;91.98
60970;BME280;46841;48.938;9.502;2024-02-16T04:13:37;98348.34;;;6.94;92.17
60970;BME280;46841;48.938;9.502;2024-02-16T04:16:04;98342.25;;;6.97;92.69
60970;BME280;46841;48.938;9.502;2024-02-16T04:18:29;98344.63;;;6.89;92.96
60970;BME280;46841;48.938;9.502;2024-02-16T04:20:55;98344.44;;;6.84;92.87
60970;BME280;46841;48.938;9.502;2024-02-16T04:23:23;98335.97;;;6.94;93.09
60970;BME280;46841;48.938;9.502;2024-02-16T04:25:48;98340.63;;;7.00;92.92
60970;BME280;46841;48.938;9.502;2024-02-16T04:28:15;98338.75;;;6.98;92.56
60970;BME280;46841;48.938;9.502;2024-02-16T04:30:44;98336.91;;;6.95;92.49
60970;BME280;46841;48.938;9.502;2024-02-16T04:33:10;98338.50;;;6.90;92.97
60970;BME280;46841;48.938;9.502;2024-02-16T04:35:35;98334.88;;;6.88;92.97
60970;BME280;46841;48.938;9.502;2024-02-16T04:38:01;98329.38;;;6.83;93.11
60970;BME280;46841;48.938;9.502;2024-02-16T04:40:28;98347.91;;;6.82;93.27
60970;BME280;46841;48.938;9.502;2024-02-16T04:42:53;98339.78;;;6.77;93.72
60970;BME280;46841;48.938;9.502;2024-02-16T04:45:19;98344.44;;;6.84;93.49
60970;BME280;46841;48.938;9.502;2024-02-16T04:47:56;98350.72;;;6.86;93.79
60970;BME280;46841;48.938;9.502;2024-02-16T04:50:25;98350.94;;;6.92;93.41
60970;BME280;46841;48.938;9.502;2024-02-16T04:52:50;98346.94;;;7.04;93.12
60970;BME280;46841;48.938;9.502;2024-02-16T04:55:19;98347.34;;;7.14;92.75
60970;BME280;46841;48.938;9.502;2024-02-16T04:57:50;98347.41;;;7.16;92.30
60970;BME280;46841;48.938;9.502;2024-02-16T05:00:20;98344.91;;;7.20;91.87
60970;BME280;46841;48.938;9.502;2024-02-16T05:02:46;98348.50;;;7.23;91.29
60970;BME280;46841;48.938;9.502;2024-02-16T05:05:12;98361.84;;;7.24;91.31
60970;BME280;46841;48.938;9.502;2024-02-16T05:07:38;98357.47;;;7.26;90.82
60970;BME280;46841;48.938;9.502;2024-02-16T05:10:07;98351.44;;;7.30;90.75
60970;BME280;46841;48.938;9.502;2024-02-16T05:12:33;98358.56;;;7.31;90.80
60970;BME280;46841;48.938;9.502;2024-02-16T05:15:00;98365.72;;;7.34;90.54
60970;BME280;46841;48.938;9.502;2024-02-16T05:17:25;98356.78;;;7.32;90.88
60970;BME280;46841;48.938;9.502;2024-02-16T05:19:51;98355.03;;;7.32;90.77
60970;BME280;46841;48.938;9.502;2024-02-16T05:22:19;98359.53;;;7.33;90.69
60970;BME280;46841;48.938;9.502;2024-02-16T05:24:49;98353.41;;;7.36;90.29
60970;BME280;46841;48.938;9.502;2024-02-16T05:27:15;98356.59;;;7.26;91.01
60970;BME280;46841;48.938;9.502;2024-02-16T05:29:40;98358.94;;;7.42;90.10
60970;BME280;46841;48.938;9.502;2024-02-16T05:32:06;98359.81;;;7.42;89.87
60970;BME280;46841;48.938;9.502;2024-02-16T05:34:32;98362.59;;;7.45;89.75
60970;BME280;46841;48.938;9.502;2024-02-16T05:37:09;98371.47;;;7.46;89.75
60970;BME280;46841;48.938;9.502;2024-02-16T05:39:37;98372.28;;;7.43;90.01
60970;BME280;46841;48.938;9.502;2024-02-16T05:42:19;98363.00;;;7.32;90.65
60970;BME280;46841;48.938;9.502;2024-02-16T05:44:46;98360.25;;;7.29;90.84
60970;BME280;46841;48.938;9.502;2024-02-16T05:47:12;98362.78;;;7.26;91.17
60970;BME280;46841;48.938;9.502;2024-02-16T05:49:38;98367.25;;;7.27;90.91
60970;BME280;46841;48.938;9.502;2024-02-16T05:52:05;98365.13;;;7.42;90.90
60970;BME280;46841;48.938;9.502;2024-02-16T05:54:47;98371.09;;;7.35;90.79
60970;BME280;46841;48.938;9.502;2024-02-16T05:57:15;98371.13;;;7.37;90.58
60970;BME280;46841;48.938;9.502;2024-02-16T05:59:42;98374.69;;;7.37;91.28
60970;BME280;46841;48.938;9.502;2024-02-16T06:02:08;98380.81;;;7.35;90.56
60970;BME280;46841;48.938;9.502;2024-02-16T06:04:37;98378.09;;;7.33;91.09
60970;BME280;46841;48.938;9.502;2024-02-16T06:07:05;98378.03;;;7.32;91.28
60970;BME280;46841;48.938;9.502;2024-02-16T06:09:31;98382.47;;;7.33;91.23
60970;BME280;46841;48.938;9.502;2024-02-16T06:12:03;98375.63;;;7.38;90.71
60970;BME280;46841;48.938;9.502;2024-02-16T06:14:34;98382.00;;;7.43;90.35
60970;BME280;46841;48.938;9.502;2024-02-16T06:17:02;98385.25;;;7.36;90.14
60970;BME280;46841;48.938;9.502;2024-02-16T06:19:27;98381.38;;;7.26;90.50
60970;BME280;46841;48.938;9.502;2024-02-16T06:21:53;98387.41;;;7.22;90.71
60970;BME280;46841;48.938;9.502;2024-02-16T06:24:24;98395.88;;;7.12;91.03
60970;BME280;46841;48.938;9.502;2024-02-16T06:26:50;98399.00;;;7.00;91.60
60970;BME280;46841;48.938;9.502;2024-02-16T06:29:23;98407.38;;;6.88;91.97
60970;BME280;46841;48.938;9.502;2024-02-16T06:31:48;98414.94;;;7.02;92.20
60970;BME280;46841;48.938;9.502;2024-02-16T06:34:15;98413.38;;;7.07;91.83
60970;BME280;46841;48.938;9.502;2024-02-16T06:36:43;98417.13;;;6.89;92.51
60970;BME280;46841;48.938;9.502;2024-02-16T06:39:11;98421.84;;;6.74;93.14
60970;BME280;46841;48.938;9.502;2024-02-16T06:41:38;98430.81;;;6.78;93.11
60970;BME280;46841;48.938;9.502;2024-02-16T06:44:13;98427.09;;;6.73;93.94
60970;BME280;46841;48.938;9.502;2024-02-16T06:46:44;98425.97;;;6.66;93.87
60970;BME280;46841;48.938;9.502;2024-02-16T06:49:19;98427.03;;;6.71;94.15
60970;BME280;46841;48.938;9.502;2024-02-16T06:51:48;98438.47;;;6.70;94.23
60970;BME280;46841;48.938;9.502;2024-02-16T06:54:13;98436.66;;;6.69;94.29
60970;BME280;46841;48.938;9.502;2024-02-16T06:56:55;98436.66;;;6.69;94.13
60970;BME280;46841;48.938;9.502;2024-02-16T06:59:21;98435.81;;;6.70;93.72
60970;BME280;46841;48.938;9.502;2024-02-16T07:01:56;98439.50;;;6.74;93.68
60970;BME280;46841;48.938;9.502;2024-02-16T07:04:27;98439.91;;;6.84;93.31
60970;BME280;46841;48.938;9.502;2024-02-16T07:06:54;98444.38;;;6.85;93.42
60970;BME280;46841;48.938;9.502;2024-02-16T07:09:26;98444.06;;;7.00;93.05
60970;BME280;46841;48.938;9.502;2024-02-16T07:11:51;98446.41;;;7.15;92.28
60970;BME280;46841;48.938;9.502;2024-02-16T07:14:18;98441.38;;;7.23;91.92
60970;BME280;46841;48.938;9.502;2024-02-16T07:16:43;98454.09;;;7.31;91.21
60970;BME280;46841;48.938;9.502;2024-02-16T07:19:10;98451.09;;;7.46;90.75
60970;BME280;46841;48.938;9.502;2024-02-16T07:21:35;98450.53;;;7.80;89.60
60970;BME280;46841;48.938;9.502;2024-02-16T07:24:01;98456.59;;;8.00;87.83
60970;BME280;46841;48.938;9.502;2024-02-16T07:26:27;98454.75;;;8.25;86.57
60970;BME280;46841;48.938;9.502;2024-02-16T07:28:54;98450.94;;;8.42;85.87
60970;BME280;46841;48.938;9.502;2024-02-16T07:31:22;98445.47;;;8.37;85.13
60970;BME280;46841;48.938;9.502;2024-02-16T07:33:48;98445.56;;;8.40;85.15
60970;BME280;46841;48.938;9.502;2024-02-16T07:36:14;98445.84;;;8.48;84.79
60970;BME280;46841;48.938;9.502;2024-02-16T07:38:41;98444.25;;;8.55;84.63
60970;BME280;46841;48.938;9.502;2024-02-16T07:41:09;98444.38;;;8.58;84.28
60970;BME280;46841;48.938;9.502;2024-02-16T07:43:35;98447.75;;;8.81;83.80
60970;BME280;46841;48.938;9.502;2024-02-16T07:46:01;98445.03;;;9.08;82.27
60970;BME280;46841;48.938;9.502;2024-02-16T07:48:29;98450.16;;;9.30;81.21
60970;BME280;46841;48.938;9.502;2024-02-16T07:50:56;98454.91;;;9.40;80.68
60970;BME280;46841;48.938;9.502;2024-02-16T07:53:25;98453.28;;;9.15;81.48
60970;BME280;46841;48.938;9.502;2024-02-16T07:55:51;98464.25;;;8.97;82.12
60970;BME280;46841;48.938;9.502;2024-02-16T07:58:16;98465.28;;;8.74;84.11
60970;BME280;46841;48.938;9.502;2024-02-16T08:00:44;98462.06;;;8.84;83.74
60970;BME280;46841;48.938;9.502;2024-02-16T08:03:10;98465.69;;;8.86;83.38
60970;BME280;46841;48.938;9.502;2024-02-16T08:05:37;98464.88;;;8.90;83.57
60970;BME280;46841;48.938;9.502;2024-02-16T08:08:05;98470.47;;;8.98;83.02
60970;BME280;46841;48.938;9.502;2024-02-16T08:10:31;98470.88;;;9.10;82.46
60970;BME280;46841;48.938;9.502;2024-02-16T08:12:58;98472.28;;;9.29;81.86
60970;BME280;46841;48.938;9.502;2024-02-16T08:15:24;98467.53;;;9.19;81.99
60970;BME280;46841;48.938;9.502;2024-02-16T08:17:51;98477.84;;;9.07;82.66
60970;BME280;46841;48.938;9.502;2024-02-16T08:20:19;98472.81;;;9.16;81.71
60970;BME280;46841;48.938;9.502;2024-02-16T08:22:46;98478.88;;;9.12;82.08
60970;BME280;46841;48.938;9.502;2024-02-16T08:25:13;98477.72;;;9.04;82.41
60970;BME280;46841;48.938;9.502;2024-02-16T08:27:41;98477.16;;;9.14;82.00
60970;BME280;46841;48.938;9.502;2024-02-16T08:30:10;98473.25;;;9.31;81.64
60970;BME280;46841;48.938;9.502;2024-02-16T08:32:37;98473.06;;;9.55;80.94
60970;BME280;46841;48.938;9.502;2024-02-16T08:35:03;98472.69;;;9.73;80.13
60970;BME280;46841;48.938;9.502;2024-02-16T08:37:28;98478.78;;;10.00;78.77
60970;BME280;46841;48.938;9.502;2024-02-16T08:39:54;98476.34;;;10.41;77.50
60970;BME280;46841;48.938;9.502;2024-02-16T08:42:21;98471.34;;;10.91;75.44
60970;BME280;46841;48.938;9.502;2024-02-16T08:52:47;98463.38;;;12.70;68.30
60970;BME280;46841;48.938;9.502;2024-02-16T08:55:13;98466.28;;;12.85;67.76
60970;BME280;46841;48.938;9.502;2024-02-16T08:57:40;98460.00;;;12.83;67.41
60970;BME280;46841;48.938;9.502;2024-02-16T09:00:12;98461.94;;;12.93;66.85
60970;BME280;46841;48.938;9.502;2024-02-16T09:02:38;98461.16;;;13.00;66.93
60970;BME280;46841;48.938;9.502;2024-02-16T09:05:05;98469.88;;;12.86;67.44
60970;BME280;46841;48.938;9.502;2024-02-16T09:07:31;98460.44;;;13.12;66.04
60970;BME280;46841;48.938;9.502;2024-02-16T09:09:57;98456.28;;;13.31;65.93
60970;BME280;46841;48.938;9.502;2024-02-16T09:12:24;98454.88;;;13.59;65.50
60970;BME280;46841;48.938;9.502;2024-02-16T09:14:50;98455.31;;;13.97;64.04
60970;BME280;46841;48.938;9.502;2024-02-16T09:17:17;98460.38;;;14.49;62.29
60970;BME280;46841;48.938;9.502;2024-02-16T09:19:44;98452.69;;;14.99;60.73
60970;BME280;46841;48.938;9.502;2024-02-16T09:22:14;98458.47;;;15.57;58.80
60970;BME280;46841;48.938;9.502;2024-02-16T09:24:46;98464.19;;;16.89;55.12
60970;BME280;46841;48.938;9.502;2024-02-16T09:27:13;98447.78;;;19.22;48.48
60970;BME280;46841;48.938;9.502;2024-02-16T09:29:39;98464.34;;;18.84;48.32
60970;BME280;46841;48.938;9.502;2024-02-16T09:32:06;98459.22;;;19.48;47.34
60970;BME280;46841;48.938;9.502;2024-02-16T09:34:35;98459.31;;;19.41;47.33
60970;BME280;46841;48.938;9.502;2024-02-16T09:37:00;98457.81;;;19.94;46.17
60970;BME280;46841;48.938;9.502;2024-02-16T09:39:26;98463.41;;;19.80;45.60
60970;BME280;46841;48.938;9.502;2024-02-16T09:41:53;98458.41;;;20.17;44.03
60970;BME280;46841;48.938;9.502;2024-02-16T09:44:23;98452.94;;;20.20;44.02
60970;BME280;46841;48.938;9.502;2024-02-16T09:46:49;98461.44;;;21.15;40.83
60970;BME280;46841;48.938;9.502;2024-02-16T09:49:16;98454.38;;;21.03;38.04
60970;BME280;46841;48.938;9.502;2024-02-16T09:51:44;98456.31;;;21.49;38.58
60970;BME280;46841;48.938;9.502;2024-02-16T09:54:11;98447.56;;;22.63;35.00
60970;BME280;46841;48.938;9.502;2024-02-16T09:56:37;98457.34;;;22.32;35.63
60970;BME280;46841;48.938;9.502;2024-02-16T09:59:03;98459.97;;;21.94;36.09
60970;BME280;46841;48.938;9.502;2024-02-16T10:01:31;98463.53;;;21.96;36.08
60970;BME280;46841;48.938;9.502;2024-02-16T10:04:07;98463.56;;;22.75;34.18
60970;BME280;46841;48.938;9.502;2024-02-16T10:06:45;98469.72;;;22.03;35.18
60970;BME280;46841;48.938;9.502;2024-02-16T10:09:25;98477.00;;;22.44;34.48
60970;BME280;46841;48.938;9.502;2024-02-16T10:11:52;98481.09;;;21.78;35.42
60970;BME280;46841;48.938;9.502;2024-02-16T10:14:17;98478.75;;;22.03;35.92
60970;BME280;46841;48.938;9.502;2024-02-16T10:16:58;98482.78;;;22.69;34.16
60970;BME280;46841;48.938;9.502;2024-02-16T10:19:27;98485.94;;;21.63;36.49
60970;BME280;46841;48.938;9.502;2024-02-16T10:21:53;98487.44;;;21.28;36.99
60970;BME280;46841;48.938;9.502;2024-02-16T10:24:23;98501.53;;;20.96;37.69
60970;BME280;46841;48.938;9.502;2024-02-16T10:26:54;98498.19;;;21.36;37.52
60970;BME280;46841;48.938;9.502;2024-02-16T10:29:22;98508.41;;;20.60;38.73
60970;BME280;46841;48.938;9.502;2024-02-16T10:31:52;98510.56;;;19.53;41.22
60970;BME280;46841;48.938;9.502;2024-02-16T10:34:21;98511.19;;;19.84;40.65
60970;BME280;46841;48.938;9.502;2024-02-16T10:36:52;98509.31;;;19.88;40.71
60970;BME280;46841;48.938;9.502;2024-02-16T10:39:18;98513.09;;;19.73;41.04
60970;BME280;46841;48.938;9.502;2024-02-16T10:41:47;98509.41;;;20.56;40.20
60970;BME280;46841;48.938;9.502;2024-02-16T10:44:17;98516.00;;;21.52;37.64
60970;BME280;46841;48.938;9.502;2024-02-16T10:46:43;98513.09;;;22.09;37.10
60970;BME280;46841;48.938;9.502;2024-02-16T10:49:09;98513.31;;;22.82;36.00
60970;BME280;46841;48.938;9.502;2024-02-16T10:51:40;98515.09;;;21.98;37.31
60970;BME280;46841;48.938;9.502;2024-02-16T10:54:10;98519.09;;;21.78;37.40
60970;BME280;46841;48.938;9.502;2024-02-16T11:26:09;98532.59;;;20.06;40.96
60970;BME280;46841;48.938;9.502;2024-02-16T11:28:48;98523.34;;;19.39;41.61
60970;BME280;46841;48.938;9.502;2024-02-16T11:31:23;98527.16;;;19.15;43.45
60970;BME280;46841;48.938;9.502;2024-02-16T11:33:53;98532.53;;;19.19;42.57
60970;BME280;46841;48.938;9.502;2024-02-16T11:36:19;98524.44;;;19.18;42.63
60970;BME280;46841;48.938;9.502;2024-02-16T11:38:49;98522.84;;;18.91;42.21
60970;BME280;46841;48.938;9.502;2024-02-16T11:41:15;98522.75;;;19.02;41.81
60970;BME280;46841;48.938;9.502;2024-02-16T11:43:42;98526.31;;;19.10;42.16
60970;BME280;46841;48.938;9.502;2024-02-16T11:46:12;98522.06;;;18.77;43.11
60970;BME280;46841;48.938;9.502;2024-02-16T11:48:39;98524.88;;;18.52;43.22
60970;BME280;46841;48.938;9.502;2024-02-16T11:51:05;98523.94;;;18.58;44.02
60970;BME280;46841;48.938;9.502;2024-02-16T11:53:32;98517.59;;;18.63;43.49
60970;BME280;46841;48.938;9.502;2024-02-16T11:56:01;98511.19;;;18.83;42.82
60970;BME280;46841;48.938;9.502;2024-02-16T11:58:27;98519.22;;;18.95;42.87
60970;BME280;46841;48.938;9.502;2024-02-16T12:00:53;98526.41;;;18.99;42.78
60970;BME280;46841;48.938;9.502;2024-02-16T12:03:20;98513.72;;;19.06;42.32
60970;BME280;46841;48.938;9.502;2024-02-16T12:05:51;98519.19;;;18.96;42.36
60970;BME280;46841;48.938;9.502;2024-02-16T12:08:19;98509.81;;;19.39;42.06
60970;BME280;46841;48.938;9.502;2024-02-16T12:10:52;98520.34;;;19.72;41.41
60970;BME280;46841;48.938;9.502;2024-02-16T12:13:19;98520.38;;;19.69;41.69
60970;BME280;46841;48.938;9.502;2024-02-16T12:15:51;98514.03;;;19.69;41.74
60970;BME280;46841;48.938;9.502;2024-02-16T12:18:25;98514.81;;;19.82;41.11
60970;BME280;46841;48.938;9.502;2024-02-16T12:21:17;98509.47;;;19.79;40.37
60970;BME280;46841;48.938;9.502;2024-02-16T12:23:45;98512.72;;;20.05;40.54
60970;BME280;46841;48.938;9.502;2024-02-16T12:26:11;98512.63;;;20.14;40.94
60970;BME280;46841;48.938;9.502;2024-02-16T12:28:39;98515.78;;;20.50;40.22
60970;BME280;46841;48.938;9.502;2024-02-16T12:31:06;98516.88;;;20.34;41.04
60970;BME280;46841;48.938;9.502;2024-02-16T12:33:35;98518.91;;;20.18;40.83
60970;BME280;46841;48.938;9.502;2024-02-16T12:36:01;98517.72;;;19.59;41.98
60970;BME280;46841;48.938;9.502;2024-02-16T12:38:31;98517.97;;;19.34;42.43
60970;BME280;46841;48.938;9.502;2024-02-16T12:40:59;98521.28;;;19.70;42.95
60970;BME280;46841;48.938;9.502;2024-02-16T12:43:25;98515.34;;;19.27;43.95
60970;BME280;46841;48.938;9.502;2024-02-16T12:45:52;98524.09;;;19.53;43.51
60970;BME280;46841;48.938;9.502;2024-02-16T12:48:24;98514.31;;;19.40;44.06
60970;BME280;46841;48.938;9.502;2024-02-16T12:50:54;98520.91;;;19.10;44.80
60970;BME280;46841;48.938;9.502;2024-02-16T12:53:23;98511.94;;;19.03;44.83
60970;BME280;46841;48.938;9.502;2024-02-16T12:55:50;98520.25;;;18.79;45.42
60970;BME280;46841;48.938;9.502;2024-02-16T12:58:16;98529.41;;;18.50;47.02
60970;BME280;46841;48.938;9.502;2024-02-16T13:00:42;98533.16;;;18.22;47.76
60970;BME280;46841;48.938;9.502;2024-02-16T13:03:09;98524.22;;;18.01;48.33
60970;BME280;46841;48.938;9.502;2024-02-16T13:05:36;98532.38;;;17.81;48.75
60970;BME280;46841;48.938;9.502;2024-02-16T13:08:06;98530.63;;;17.74;49.48
60970;BME280;46841;48.938;9.502;2024-02-16T13:10:32;98532.38;;;17.70;48.61
60970;BME280;46841;48.938;9.502;2024-02-16T13:13:00;98528.84;;;17.42;49.93
60970;BME280;46841;48.938;9.502;2024-02-16T13:15:29;98530.66;;;17.36;50.36
60970;BME280;46841;48.938;9.502;2024-02-16T13:17:56;98542.38;;;17.21;50.64
60970;BME280;46841;48.938;9.502;2024-02-16T13:20:25;98534.25;;;17.42;50.37
60970;BME280;46841;48.938;9.502;2024-02-16T13:22:54;98533.31;;;17.57;50.06
60970;BME280;46841;48.938;9.502;2024-02-16T13:25:19;98536.91;;;17.64;49.93
60970;BME280;46841;48.938;9.502;2024-02-16T13:27:51;98536.88;;;17.70;49.76
60970;BME280;46841;48.938;9.502;2024-02-16T13:30:19;98523.44;;;17.75;49.38
60970;BME280;46841;48.938;9.502;2024-02-16T13:32:45;98531.50;;;17.67;49.65
60970;BME280;46841;48.938;9.502;2024-02-16T13:35:12;98530.59;;;17.62;50.32
60970;BME280;46841;48.938;9.502;2024-02-16T13:37:39;98536.00;;;17.66;50.37
60970;BME280;46841;48.938;9.502;2024-02-16T13:40:07;98543.25;;;17.49;50.67
60970;BME280;46841;48.938;9.502;2024-02-16T13:42:40;98542.34;;;17.49;50.60
60970;BME280;46841;48.938;9.502;2024-02-16T13:45:08;98545.94;;;17.46;51.08
60970;BME280;46841;48.938;9.502;2024-02-16T13:47:34;98554.03;;;17.34;52.12